Relevés horaires Eggishorn (Suisse)


Relevés horaires à Eggishorn - Jeudi 10 Oct. 2019
Heure UTC1 Température [°C] Vent [km/h] Hum. [%] Pres.4 [hPa] Visi. [Km] Nébu. [octa] Préc.5 [mm] Cond.
2m. Res. Ros. Dir.2 Vit. Moy. Raf.3
23:00 -0.3 -6.2 -11.0 NNO 24.1 -- 33.3 44 700(0.5/3h) -- -- -- --
22:00 -1.0 -6.6 -11.8 O 20.4 -- 27.8 44 700(1.1/3h) -- -- -- --
21:00 -1.7 -7.1 -10.7 O 18.5 -- 29.6 50 700(1.1/3h) -- -- -- --
20:00 -2.6 -8 -7.4 O 16.7 -- 27.8 69 700(1.4/3h) -- -- -- --
19:00 -2.6 -8 -6.7 O 16.7 -- 25.9 73 700(1.4/3h) -- -- -- --
18:00 -2.4 -6.5 -4.9 O 11.1 -- 20.4 83 700(1.2/3h) -- -- -- --
17:00 -1.8 -4.6 -5.1 SSO 7.4 -- 20.4 78 700(0.7/3h) -- -- -- --
16:00 -1.7 -3.8 -5.0 S 5.6 -- 20.4 78 700(0.7/3h) -- -- -- --
15:00 0.6 -2.9 -3.6 O 11.1 -- 18.5 73 700(0.6/3h) -- -- -- --
14:00 0.2 -1.6 -3.8 ONO 5.6 -- 16.7 74 700(0.7/3h) -- -- -- --
13:00 -1.3 -3.3 -3.2 ONO 5.6 -- 18.5 87 700(0.3/3h) -- -- -- --
12:00 -1.5 -1.5 -4.5 NO 3.7 -- 61.1 80 700(0.4/3h) -- -- -- --
11:00 -2.2 -6.7 -6.3 OSO 13.0 -- 29.6 73 700(0.9/3h) -- -- -- --
10:00 -2.8 -8.5 -5.4 SO 18.5 -- 31.5 82 700(1.8/3h) -- -- -- --
09:00 -3.6 -7.4 -6.9 SE 9.3 -- 61.1 78 700(2.1/3h) -- -- -- --
08:00 -4.7 -10.9 -6.5 ONO 18.5 -- 51.9 87 700(1.8/3h) -- -- -- --
07:00 -5.5 -13.1 -6.8 O 25.9 -- 61.1 91 700(0.9/3h) -- -- -- --
06:00 -5.3 -12.6 -7.3 O 24.1 -- 59.3 86 700(0.5/3h) -- -- -- --
05:00 -5.4 -13 -6.6 O 25.9 -- 53.7 91 700(0.1/3h) -- -- -- --
04:00 -5.2 -12.7 -5.9 O 25.9 -- 59.3 95 700(-0.3/3h) -- -- -- --
03:00 -4.6 -11.9 -6.2 OSO 25.9 -- 55.6 89 700(-0.3/3h) -- -- -- --
02:00 -3.8 -11.8 -7.4 O 33.3 -- 53.7 76 700(-0.4/3h) -- -- -- --
01:00 -4.0 -10.4 -7.8 O 20.4 -- 48.2 75 700(-0.2/3h) -- -- -- --
00:00 -3.7 -10.3 -7.6 OSO 22.2 -- 81.5 74 700(-0.5/3h) -- -- -- --

1 Coordinated Universal Time. Actuellement il est 17:00 locale et 15:00 UTC.

2 Le vent souffle depuis la direction indiquée vers la direction oposée.

3 Les rafales max. sont disponible 40 min après l'heure du relevé.

4 Pour les stations d'altitude (plus de 600m) le géopotentiel du niveau le plus proche de la pression obligatoire est indiqué.

5 Les stations disposant d'un diffuseur peuvent indiquer "trace". Cela signifie que des précipitations ont touchés le sol mais que la quantité est inférieure à 0.1 mm.

Copyright

Les données affichées sur cette page sont la propriété exclusive de Météo Suisse.

Récapitulatif de la journée
Température [°C] Vent [km/h] Ensoleillement4 [h] Precipitations totale5 [mm] Pression [Hpa]
Min1 Max.2 Moy.3 Max. Min Max.
-5.5 0.6 0 81.5 7 h 12 min 0 700.0 700.0

1 Température minimale relevée entre 18:00 UTC la veille et 18:00 UTC le jour donné.

2 Température maximale relevée entre 06:00 UTC le jour donné et 06:00 UTC le lendemain.

3 Vent moyen de la journée basé sur les relevés horaires.

4 Ensoleillement en heures relevé entre 06:00 UTC la veille et 06:00 UTC le jour donné.

5 Précipitations totales tombées entre 06:00 UTC la jour donné et 06:00 UTC le lendemain.

Graphiques horaires